Time;durP1;ratioP1;P1;durP2;ratioP2;P2;SDS_P1;SDS_P2;PMS_P1;PMS_P2;Temp;Humidity;BMP_temperature;BMP_pressure;BME280_temperature;BME280_humidity;BME280_pressure;Samples;Min_cycle;Max_cycle;Signal;HPM_P1;HPM_P2
2021/12/05 00:17:45;;;;;;;18.75;9.00;;;7.60;99.90;;;7.76;83.64;99490.19;5114953;28;20040;-75
2021/12/05 00:20:50;;;;;;;14.15;8.23;;;7.60;99.90;;;7.88;83.98;99508.41;5114644;28;20112;-74
2021/12/05 00:23:27;;;;;;;17.23;7.85;;;7.60;99.90;;;7.77;83.69;99476.13;5115131;28;20039;-74
2021/12/05 00:25:58;;;;;;;19.30;8.75;;;7.70;99.90;;;7.88;83.79;99516.28;5114360;28;20078;-75
2021/12/05 00:39:56;;;;;;;18.67;7.55;;;7.40;99.90;;;7.58;85.85;99506.25;5088398;28;20138;-74
2021/12/05 00:43:03;;;;;;;22.48;8.70;;;7.40;99.90;;;7.56;85.57;99487.84;5113303;28;20044;-73
2021/12/05 00:45:50;;;;;;;22.50;8.48;;;7.40;99.90;;;7.64;85.69;99501.75;5113089;28;20109;-73
2021/12/05 00:51:35;;;;;;;18.38;7.80;;;7.40;99.90;;;7.49;85.64;99480.06;5063594;28;20059;-72
2021/12/05 00:54:54;;;;;;;24.00;8.18;;;7.40;99.90;;;7.63;85.53;99489.47;5114511;28;20394;-74
2021/12/05 01:08:59;;;;;;;16.00;7.22;;;7.40;99.90;;;7.53;85.99;99476.50;5057760;28;20043;-72
2021/12/05 01:12:04;;;;;;;16.08;7.05;;;7.40;99.90;;;7.52;86.01;99470.38;5130649;28;20054;-72
2021/12/05 01:14:48;;;;;;;21.23;7.38;;;7.40;99.90;;;7.46;86.11;99472.22;5130183;28;20377;-72
2021/12/05 01:17:22;;;;;;;18.00;7.13;;;7.40;99.90;;;7.37;86.77;99452.19;5130538;28;20130;-73
2021/12/05 01:19:54;;;;;;;23.88;8.38;;;7.30;99.90;;;7.44;86.42;99464.34;5130128;28;20489;-73
2021/12/05 01:22:26;;;;;;;18.30;7.70;;;7.30;99.90;;;7.41;86.57;99469.66;5111875;28;20546;-72
2021/12/05 01:25:03;;;;;;;20.13;7.47;;;7.30;99.90;;;7.37;86.41;99485.50;5130365;28;20043;-73
2021/12/05 01:27:40;;;;;;;21.83;7.70;;;7.30;99.90;;;7.25;86.63;99491.78;5112065;28;20460;-72
2021/12/05 01:30:16;;;;;;;24.13;8.88;;;7.10;99.90;;;7.18;86.41;99495.41;5111301;28;20049;-73
2021/12/05 01:32:59;;;;;;;26.98;8.40;;;7.10;99.90;;;7.18;86.87;99490.16;5129901;28;20051;-72
2021/12/05 01:35:45;;;;;;;23.02;9.18;;;7.00;99.90;;;7.18;86.39;99482.25;5130086;28;20055;-72
2021/12/05 01:38:22;;;;;;;25.40;9.07;;;7.00;99.90;;;7.31;86.50;99483.81;5112004;28;20059;-71
2021/12/05 01:41:05;;;;;;;20.60;7.95;;;7.10;99.90;;;7.19;86.63;99479.59;5112071;28;20139;-72
2021/12/05 01:58:07;;;;;;;18.13;7.90;;;6.90;99.90;;;7.05;87.61;99473.66;5093770;28;19920;-73
2021/12/05 02:01:07;;;;;;;18.83;7.75;;;6.90;99.90;;;6.99;87.78;99476.34;5111268;28;20476;-72
2021/12/05 02:29:38;;;;;;;10.75;7.53;;;6.70;99.90;;;6.78;88.52;99470.47;5115443;28;20052;-72
2021/12/05 02:41:04;;;;;;;13.77;7.20;;;6.50;99.90;;;6.59;89.51;99469.84;5022787;28;20538;-73
2021/12/05 02:43:35;;;;;;;19.77;7.05;;;6.50;99.90;;;6.63;89.72;99462.78;5096781;28;20083;-72
2021/12/05 02:46:06;;;;;;;12.45;6.32;;;6.50;99.90;;;6.66;89.64;99473.28;5096957;28;20394;-73
2021/12/05 02:48:37;;;;;;;15.95;6.97;;;6.50;99.90;;;6.65;89.80;99484.66;5097273;28;20420;-73
2021/12/05 02:51:12;;;;;;;14.80;5.97;;;6.60;99.90;;;6.66;89.66;99468.03;5097087;28;20070;-73
2021/12/05 02:53:47;;;;;;;16.52;7.10;;;6.60;99.90;;;6.66;89.69;99466.25;5096338;28;20082;-73
2021/12/05 02:56:17;;;;;;;13.05;7.07;;;6.60;99.90;;;6.67;89.79;99467.13;5096611;28;20043;-73
2021/12/05 02:58:51;;;;;;;15.55;7.32;;;6.50;99.90;;;6.66;90.06;99478.53;5114959;28;20052;-73
2021/12/05 03:01:29;;;;;;;12.70;6.38;;;6.60;99.90;;;6.70;90.10;99469.69;5096417;28;20412;-74
2021/12/05 03:03:59;;;;;;;9.43;5.38;;;6.60;99.90;;;6.58;89.76;99464.59;5114801;28;20067;-73
2021/12/05 03:06:32;;;;;;;8.18;5.47;;;6.50;99.90;;;6.65;89.91;99474.13;5096360;28;20067;-73
2021/12/05 03:09:08;;;;;;;8.13;4.93;;;6.50;99.90;;;6.47;89.40;99483.09;5114581;28;20052;-74
2021/12/05 03:11:37;;;;;;;9.60;5.90;;;6.40;99.90;;;6.50;89.28;99472.56;5114641;28;20071;-73
2021/12/05 03:14:07;;;;;;;8.65;5.13;;;6.30;99.90;;;6.57;89.15;99478.59;5096201;28;20047;-73
2021/12/05 03:16:38;;;;;;;7.00;4.72;;;6.40;99.90;;;6.50;88.77;99471.69;5114593;28;20069;-73
2021/12/05 03:19:11;;;;;;;8.48;5.00;;;6.40;99.90;;;6.31;88.61;99453.50;5096159;28;20515;-73
2021/12/05 03:21:42;;;;;;;5.32;4.88;;;6.40;99.90;;;6.39;89.00;99471.78;5096089;28;20059;-72
2021/12/05 03:24:14;;;;;;;9.25;5.00;;;6.30;99.90;;;6.49;88.38;99451.56;5113820;28;20047;-73
2021/12/05 03:26:47;;;;;;;7.45;5.40;;;6.30;99.90;;;6.56;88.92;99466.38;5114128;28;20046;-75
2021/12/05 03:29:17;;;;;;;6.32;5.32;;;6.40;99.90;;;6.55;88.49;99456.75;5095982;28;20453;-74
2021/12/05 03:31:48;;;;;;;7.78;4.60;;;6.40;99.90;;;6.64;88.86;99465.38;5113975;28;20492;-73
2021/12/05 03:34:21;;;;;;;7.75;5.30;;;6.50;99.90;;;6.73;88.79;99467.06;5095817;28;20504;-73
2021/12/05 03:36:55;;;;;;;8.68;5.72;;;6.60;99.90;;;6.65;88.41;99468.88;5095843;28;20043;-73
2021/12/05 03:39:29;;;;;;;6.43;5.30;;;6.60;99.90;;;6.60;88.51;99476.81;5095622;28;20072;-72
2021/12/05 03:41:58;;;;;;;6.00;5.45;;;6.50;99.90;;;6.44;88.36;99451.63;5095653;28;20048;-73
2021/12/05 03:44:31;;;;;;;8.02;6.00;;;6.40;99.90;;;6.44;87.89;99462.13;5113677;28;20071;-73
2021/12/05 03:47:01;;;;;;;6.93;5.47;;;6.40;99.90;;;5.64;87.97;99329.06;5113766;28;20044;-73
2021/12/05 03:49:30;;;;;;;6.97;5.38;;;6.40;99.90;;;6.46;88.53;99489.25;5113654;28;20054;-73
2021/12/05 03:52:06;;;;;;;8.90;5.68;;;6.30;99.90;;;6.46;88.63;99488.38;5095666;28;20039;-74
2021/12/05 03:54:36;;;;;;;7.65;5.47;;;6.40;99.90;;;6.49;88.69;99488.31;5113766;28;20149;-73
2021/12/05 03:57:05;;;;;;;6.45;5.88;;;6.30;99.90;;;6.49;88.83;99506.69;5113736;28;20083;-73
2021/12/05 03:59:36;;;;;;;11.60;6.60;;;6.40;99.90;;;6.57;89.04;99499.63;5095359;28;20070;-73
2021/12/05 04:02:08;;;;;;;9.48;6.57;;;6.40;99.90;;;6.57;88.77;99503.13;5091464;28;20084;-73
2021/12/05 04:04:40;;;;;;;7.63;6.28;;;6.50;99.90;;;6.62;88.51;99510.97;5091614;28;20139;-72
2021/12/05 04:07:13;;;;;;;8.17;6.60;;;6.50;99.90;;;6.04;88.51;99426.66;5093248;28;20127;-74
2021/12/05 04:09:44;;;;;;;6.55;5.82;;;6.50;99.90;;;6.63;88.53;99507.44;5091873;28;20363;-73
2021/12/05 04:12:15;;;;;;;9.23;6.07;;;6.50;99.90;;;6.66;88.40;99499.53;5093140;28;20048;-73
2021/12/05 04:14:54;;;;;;;10.00;6.65;;;6.50;99.90;;;6.59;89.13;99508.34;5093095;28;20055;-72
2021/12/05 04:17:25;;;;;;;6.70;5.93;;;6.50;99.90;;;6.57;88.88;99507.50;5091432;28;20048;-73
2021/12/05 04:19:57;;;;;;;6.17;5.67;;;6.40;99.90;;;6.54;88.74;99500.53;5093185;28;20411;-73
2021/12/05 04:22:26;;;;;;;6.43;5.87;;;6.40;99.90;;;6.50;88.67;99516.34;5091336;28;20052;-73
2021/12/05 04:24:58;;;;;;;5.68;5.18;;;6.30;99.90;;;6.56;88.78;99513.66;5093081;28;20040;-73
2021/12/05 04:27:28;;;;;;;6.32;5.15;;;6.40;99.90;;;6.65;88.46;99513.53;5091335;28;20094;-73
2021/12/05 04:29:56;;;;;;;7.63;4.53;;;6.50;99.90;;;6.63;88.38;99513.56;5092522;28;20033;-72
2021/12/05 04:32:26;;;;;;;5.20;4.65;;;6.50;99.90;;;6.68;88.28;99513.53;5091533;28;20482;-72
2021/12/05 04:34:55;;;;;;;5.97;5.47;;;6.50;99.90;;;6.68;88.25;99519.63;5091785;28;20070;-73
2021/12/05 04:37:24;;;;;;;5.32;4.80;;;6.50;99.90;;;6.71;87.93;99519.63;5091281;28;20130;-73
2021/12/05 04:39:53;;;;;;;5.25;4.75;;;6.60;99.90;;;6.82;87.86;99520.38;5091322;28;20044;-73
2021/12/05 04:42:26;;;;;;;9.82;5.22;;;6.60;99.90;;;6.82;87.35;99530.00;5091384;28;20569;-74
2021/12/05 04:44:55;;;;;;;8.93;6.03;;;6.70;99.90;;;6.81;87.88;99523.00;5091376;28;20574;-74
2021/12/05 04:47:23;;;;;;;7.20;6.07;;;6.60;99.90;;;6.53;87.87;99487.41;5091000;28;20068;-74
2021/12/05 04:49:54;;;;;;;;;;;6.60;99.90;;;6.70;88.23;99523.13;5091828;28;20499;-75
2021/12/05 04:52:24;;;;;;;13.07;9.33;;;6.60;99.90;;;6.69;88.61;99528.41;5091232;28;19920;-75
2021/12/05 04:54:52;;;;;;;10.27;9.10;;;6.60;99.90;;;6.66;88.70;99529.28;5092588;28;20044;-75
2021/12/05 04:57:21;;;;;;;11.37;10.10;;;6.50;99.90;;;6.67;89.15;99530.16;5092416;28;20052;-73
2021/12/05 04:59:52;;;;;;;11.63;10.43;;;6.50;99.90;;;6.70;89.18;99535.38;5090990;28;20435;-73
2021/12/05 05:02:21;;;;;;;13.90;10.32;;;6.50;99.90;;;6.26;89.21;99443.94;5090907;28;20422;-74
2021/12/05 05:04:50;;;;;;;12.98;10.52;;;6.60;99.90;;;6.83;88.96;99543.09;5092264;28;20047;-74
2021/12/05 05:07:26;;;;;;;11.88;10.10;;;6.60;99.90;;;6.87;88.62;99543.97;5092017;28;20051;-75
2021/12/05 05:10:05;;;;;;;10.90;8.90;;;6.70;99.90;;;6.77;88.41;99539.69;5091182;28;20055;-76
2021/12/05 05:12:33;;;;;;;10.77;8.10;;;6.60;99.90;;;6.76;88.60;99543.19;5092758;28;20052;-75
2021/12/05 05:15:04;;;;;;;8.85;8.05;;;6.60;99.90;;;6.58;88.37;99514.50;5092703;28;20123;-75
2021/12/05 05:17:33;;;;;;;7.88;7.15;;;6.60;99.90;;;6.78;88.18;99547.56;5092977;28;20089;-75
2021/12/05 05:20:08;;;;;;;8.77;7.88;;;6.60;99.90;;;6.85;88.34;99556.25;5092891;28;20114;-75
2021/12/05 05:22:43;;;;;;;8.68;7.00;;;6.60;99.90;;;6.84;87.87;99552.75;5092876;28;20436;-75
2021/12/05 05:25:49;;;;;;;9.88;7.55;;;6.60;99.90;;;6.83;87.71;99571.16;5092641;28;20072;-75
2021/12/05 05:28:37;;;;;;;8.00;7.28;;;6.60;99.90;;;6.82;87.68;99558.91;5092749;28;20040;-74
2021/12/05 05:45:26;;;;;;;6.25;5.70;;;6.50;99.90;;;6.70;86.74;99561.63;5092656;28;20129;-75
2021/12/05 05:50:38;;;;;;;4.97;4.57;;;6.50;99.90;;;6.68;86.62;99571.31;5096046;28;20044;-74
2021/12/05 05:53:08;;;;;;;5.70;5.30;;;6.50;99.90;;;6.58;86.48;99553.91;5096146;28;20482;-74
2021/12/05 05:55:37;;;;;;;6.57;4.68;;;6.50;99.90;;;6.76;86.40;99579.97;5094990;28;20113;-73
2021/12/05 05:58:08;;;;;;;5.00;4.60;;;6.50;99.90;;;6.77;86.24;99576.47;5095984;28;20040;-74
2021/12/05 06:00:50;;;;;;;5.53;5.03;;;6.60;99.90;;;6.85;85.84;99580.75;5095010;28;20048;-74
2021/12/05 06:03:23;;;;;;;5.90;4.28;;;6.60;99.90;;;6.89;85.79;99584.25;5114293;28;20059;-74
2021/12/05 06:05:56;;;;;;;4.50;4.10;;;6.70;99.90;;;6.93;85.73;99588.59;5116287;28;20056;-74
2021/12/05 06:08:28;;;;;;;4.95;4.65;;;6.70;99.90;;;6.27;85.37;99480.66;5116262;28;20043;-74
2021/12/05 06:11:01;;;;;;;7.20;5.40;;;6.80;99.90;;;6.85;85.44;99588.63;5116287;28;20417;-74
2021/12/05 06:13:30;;;;;;;7.28;5.70;;;6.80;99.90;;;6.83;85.87;99605.31;5116475;28;20043;-74
2021/12/05 06:16:00;;;;;;;9.13;6.40;;;6.80;99.90;;;6.75;86.09;99602.78;5098036;28;20097;-74
2021/12/05 06:18:30;;;;;;;8.35;6.28;;;6.70;99.90;;;6.73;86.23;99603.66;5116004;28;20414;-74
2021/12/05 06:21:00;;;;;;;7.45;6.70;;;6.60;99.90;;;6.69;87.05;99602.84;5116312;28;20055;-74
2021/12/05 06:23:28;;;;;;;8.60;7.00;;;6.60;99.90;;;6.70;87.04;99595.78;5115854;28;20131;-74
2021/12/05 06:25:56;;;;;;;8.38;7.18;;;6.70;99.90;;;6.70;87.44;99606.31;5115743;28;20048;-75
2021/12/05 06:28:31;;;;;;;9.20;6.15;;;6.60;99.90;;;6.79;87.12;99620.25;5116017;28;20040;-75
2021/12/05 06:31:09;;;;;;;7.05;6.40;;;6.70;99.90;;;6.89;87.14;99623.66;5115828;28;20052;-74
2021/12/05 06:42:19;;;;;;;7.68;6.28;;;6.90;99.90;;;7.07;86.38;99633.97;5115631;28;20047;-74
2021/12/05 06:47:34;;;;;;;7.72;5.53;;;7.00;99.90;;;7.14;85.73;99640.94;5115524;28;20476;-75
2021/12/05 06:50:06;;;;;;;7.97;6.55;;;7.00;99.90;;;7.14;85.64;99677.72;5115628;28;20036;-74
2021/12/05 06:52:42;;;;;;;10.05;6.60;;;7.00;99.90;;;7.14;85.63;99656.69;5115442;28;20051;-75
2021/12/05 06:55:12;;;;;;;7.05;6.47;;;7.00;99.90;;;7.10;85.53;99655.84;5115883;28;20078;-74
2021/12/05 06:57:42;;;;;;;8.00;7.18;;;7.00;99.90;;;7.10;84.99;99655.00;5115768;28;20067;-74
2021/12/05 07:00:17;;;;;;;8.43;7.20;;;7.00;99.90;;;7.06;84.84;99659.41;5115064;28;20408;-74
2021/12/05 07:02:45;;;;;;;8.73;7.80;;;6.90;99.90;;;6.97;85.04;99654.22;5096818;28;20063;-74
2021/12/05 07:08:00;;;;;;;8.55;7.75;;;6.80;99.90;;;6.90;85.21;99659.56;5114490;28;20092;-75
2021/12/05 07:10:32;;;;;;;8.45;7.65;;;6.70;99.90;;;6.64;85.22;99670.28;5114972;28;20039;-75
2021/12/05 07:15:55;;;;;;;10.25;9.15;;;6.50;99.90;;;6.58;86.00;99675.56;5096948;28;20055;-73
2021/12/05 07:24:06;;;;;;;9.95;9.05;;;6.60;99.90;;;6.76;86.18;99677.19;5094436;28;20082;-74
2021/12/05 07:26:50;;;;;;;13.93;9.20;;;6.60;99.90;;;6.79;86.19;99687.69;5114682;28;20114;-75
2021/12/05 07:40:27;;;;;;;11.32;9.35;;;6.70;99.90;;;6.91;84.87;99706.84;5114487;28;20067;-74
2021/12/05 07:42:57;;;;;;;10.35;9.30;;;6.70;99.90;;;6.91;84.95;99706.84;5114668;28;20070;-75
2021/12/05 07:45:33;;;;;;;;;;;6.70;99.90;;;6.92;84.93;99723.50;5114709;28;20039;-75
2021/12/05 07:48:09;;;;;;;12.20;9.73;;;6.80;99.90;;;6.94;84.74;99713.84;5114806;28;19965;-73
2021/12/05 07:50:46;;;;;;;11.05;8.77;;;6.80;99.90;;;6.95;84.52;99728.75;5114263;28;20485;-75
2021/12/05 07:53:23;;;;;;;10.20;9.15;;;6.80;99.90;;;6.93;84.20;99741.88;5114135;28;20040;-76
2021/12/05 07:55:54;;;;;;;10.13;8.98;;;6.80;99.90;;;6.89;84.36;99737.50;5114032;28;20489;-77
2021/12/05 07:58:46;;;;;;;9.63;8.75;;;6.80;99.90;;;6.87;84.46;99730.56;5114241;28;20043;-75
2021/12/05 08:15:16;;;;;;;10.13;9.13;;;6.80;99.90;;;7.09;84.98;99768.91;5073703;28;20087;-72
2021/12/05 08:17:51;;;;;;;12.63;9.93;;;6.80;99.90;;;6.73;85.38;99756.06;5073010;28;20389;-72
2021/12/05 08:20:24;;;;;;;12.27;9.87;;;6.60;99.90;;;6.45;86.33;99759.72;5073025;28;20453;-73
2021/12/05 08:22:53;;;;;;;13.10;11.10;;;6.30;99.90;;;6.03;88.38;99756.44;5072965;28;20045;-75
2021/12/05 08:25:26;;;;;;;14.27;11.60;;;6.00;99.90;;;5.85;89.51;99759.13;5072839;28;20040;-74
2021/12/05 08:28:03;;;;;;;12.20;10.45;;;5.80;99.90;;;5.91;90.74;99759.13;5072946;28;20469;-76
2021/12/05 08:30:35;;;;;;;13.75;11.10;;;5.70;99.90;;;5.93;91.21;99756.47;5073022;28;20056;-76
2021/12/05 08:33:24;;;;;;;14.50;11.75;;;5.80;99.90;;;6.15;92.12;99776.53;5072896;28;20075;-77
2021/12/05 08:36:21;;;;;;;16.23;12.93;;;5.90;99.90;;;6.11;91.37;99764.28;5071817;28;20563;-77
2021/12/05 08:42:01;;;;;;;15.57;10.87;;;6.00;99.90;;;6.88;92.41;99779.59;5032266;28;20456;-79
2021/12/05 08:45:17;;;;;;;12.75;11.35;;;6.50;99.90;;;7.46;91.32;99785.22;5072619;28;20512;-78
2021/12/05 10:03:22;;;;;;;10.07;7.90;;;8.10;99.90;;;8.17;84.44;99899.44;5116116;28;20106;-74
2021/12/05 10:08:51;;;;;;;9.00;8.07;;;8.20;99.90;;;8.60;84.70;99909.53;5116015;28;20078;-73
2021/12/05 10:11:34;;;;;;;9.52;8.05;;;8.50;99.90;;;8.80;84.74;99916.31;5116093;28;20565;-75
2021/12/05 10:14:26;;;;;;;10.98;8.50;;;8.70;99.90;;;8.82;83.45;99890.81;5115984;28;20111;-77
2021/12/05 10:17:20;;;;;;;9.45;7.38;;;8.80;99.90;;;9.07;83.35;99912.44;5115905;28;20057;-75
2021/12/05 10:34:29;;;;;;;12.23;8.02;;;9.60;99.90;;;9.92;78.65;99947.19;5115539;28;20048;-69
2021/12/05 10:37:10;;;;;;;8.52;7.20;;;9.70;99.90;;;9.69;77.50;99946.69;5097710;28;20055;-69
2021/12/05 10:39:40;;;;;;;8.23;7.40;;;9.60;99.90;;;9.76;78.08;99939.53;5115618;28;20112;-69
2021/12/05 10:42:35;;;;;;;8.18;7.38;;;9.60;99.90;;;9.76;77.78;99940.41;5115875;28;20044;-72
2021/12/05 10:45:06;;;;;;;7.60;6.90;;;9.60;99.90;;;9.87;77.80;99950.81;5115736;28;20062;-71
2021/12/05 10:47:41;;;;;;;9.05;6.47;;;9.70;99.90;;;10.17;78.00;99954.72;5116001;28;20051;-76
2021/12/05 10:50:35;;;;;;;7.13;6.43;;;10.00;99.90;;;10.30;76.61;99951.84;5115444;28;20051;-75
2021/12/05 10:53:38;;;;;;;7.40;6.78;;;10.20;99.90;;;10.56;76.83;99959.28;5115779;28;20051;-76
2021/12/05 10:56:18;;;;;;;6.85;5.90;;;10.40;99.90;;;10.57;75.61;99958.38;5115417;28;20059;-71
2021/12/05 10:58:55;;;;;;;6.10;5.60;;;10.50;99.90;;;10.48;75.32;99961.19;5114852;28;20409;-72
2021/12/05 11:01:30;;;;;;;6.82;6.18;;;10.40;99.90;;;10.34;75.25;99956.16;5115239;28;20564;-72
2021/12/05 11:04:03;;;;;;;7.47;6.65;;;10.30;99.90;;;10.38;75.21;99959.63;5114919;28;20082;-69
2021/12/05 11:06:40;;;;;;;6.85;6.25;;;10.30;99.90;;;10.40;75.92;99969.28;5115282;28;20075;-72
2021/12/05 11:09:15;;;;;;;6.90;5.72;;;10.20;99.90;;;10.40;75.96;99973.69;5115045;28;20382;-73
2021/12/05 11:11:48;;;;;;;6.88;6.28;;;10.30;99.90;;;10.38;75.72;99970.19;5115296;28;20076;-73
2021/12/05 11:14:20;;;;;;;5.90;5.40;;;10.20;99.90;;;10.06;75.00;99967.22;5115011;28;20039;-73
2021/12/05 11:17:02;;;;;;;7.47;6.10;;;10.00;99.90;;;10.15;75.79;99967.97;5114916;28;20047;-74
2021/12/05 11:19:36;;;;;;;5.80;5.38;;;10.00;99.90;;;10.14;75.91;99982.09;5114811;28;20044;-72
2021/12/05 11:22:16;;;;;;;6.43;5.20;;;10.00;99.90;;;10.13;75.91;99980.31;5114767;28;20100;-71
2021/12/05 11:24:50;;;;;;;6.28;5.75;;;10.00;99.90;;;10.17;75.75;99975.84;5114746;28;20123;-71
2021/12/05 11:27:26;;;;;;;6.18;5.68;;;10.00;99.90;;;10.10;76.58;99974.22;5114866;28;20040;-72
2021/12/05 11:30:10;;;;;;;6.20;5.60;;;9.90;99.90;;;10.14;76.09;99981.22;5114474;28;20048;-70
2021/12/05 11:32:46;;;;;;;7.63;6.03;;;10.00;99.90;;;10.20;76.41;99983.75;5114905;28;20063;-72
2021/12/05 11:35:32;;;;;;;6.60;5.88;;;10.10;99.90;;;10.32;76.21;99988.78;5114533;28;20036;-76
2021/12/05 11:38:18;;;;;;;5.75;5.25;;;10.20;99.90;;;10.38;75.59;99986.06;5114416;28;20382;-78
2021/12/05 11:40:58;;;;;;;5.68;5.28;;;10.20;99.90;;;10.42;75.64;99982.47;5114310;28;20613;-77
2021/12/05 11:43:31;;;;;;;8.25;5.57;;;10.30;99.90;;;10.37;75.14;99989.59;5114154;28;20031;-77
2021/12/05 11:46:06;;;;;;;6.13;5.57;;;10.20;99.90;;;10.44;75.14;99992.13;5113558;28;20046;-74
2021/12/05 11:48:37;;;;;;;5.53;5.03;;;10.30;99.90;;;10.41;74.69;99999.22;5114491;28;20046;-74
2021/12/05 11:51:23;;;;;;;6.53;5.90;;;10.20;99.90;;;10.39;74.95;100004.56;5114364;28;20105;-72
2021/12/05 11:53:55;;;;;;;8.18;5.97;;;10.20;99.90;;;10.39;74.86;100004.56;5114082;28;20047;-72
2021/12/05 11:56:43;;;;;;;6.70;5.55;;;10.20;99.90;;;10.43;74.75;100006.22;5114093;28;20401;-75
2021/12/05 11:59:21;;;;;;;6.95;4.97;;;10.20;99.90;;;10.35;74.71;99994.94;5114109;28;20071;-73
2021/12/05 12:02:00;;;;;;;7.18;5.13;;;10.20;99.90;;;10.30;74.72;99998.56;5113798;28;20489;-75
2021/12/05 12:04:43;;;;;;;6.15;5.57;;;10.20;99.90;;;10.28;75.13;100010.94;5114534;28;20039;-80
2021/12/05 12:07:23;;;;;;;5.85;4.88;;;10.10;99.90;;;10.29;75.19;100004.72;5113730;28;20370;-77
2021/12/05 12:09:55;;;;;;;7.63;5.07;;;10.10;99.90;;;10.25;75.49;100011.84;5114222;28;20040;-73
2021/12/05 12:12:24;;;;;;;6.30;4.57;;;10.00;99.90;;;9.72;75.44;99919.34;5113811;28;20831;-73
2021/12/05 12:14:54;;;;;;;4.82;4.43;;;10.10;99.90;;;10.29;75.21;100015.28;5113781;28;20563;-72
2021/12/05 12:17:23;;;;;;;6.38;4.90;;;10.10;99.90;;;10.34;75.01;100024.88;5113980;28;20051;-73
2021/12/05 12:19:54;;;;;;;5.00;4.50;;;10.10;99.90;;;10.36;74.94;100020.44;5113980;28;20130;-72
2021/12/05 12:22:26;;;;;;;7.85;5.20;;;10.10;99.90;;;10.40;74.31;100029.19;5113975;28;20043;-71
2021/12/05 12:25:02;;;;;;;5.50;5.00;;;10.20;99.90;;;10.33;74.23;100031.09;5095647;28;20058;-73
2021/12/05 12:27:30;;;;;;;5.05;4.65;;;10.20;99.90;;;10.35;74.18;100039.88;5113514;28;20489;-72
2021/12/05 12:30:08;;;;;;;5.20;4.80;;;10.10;99.90;;;10.25;73.76;100042.66;5113855;28;20047;-71
2021/12/05 12:32:45;;;;;;;5.05;4.55;;;10.10;99.90;;;10.31;73.99;100047.84;5113499;28;20507;-72
2021/12/05 12:35:18;;;;;;;5.57;4.88;;;10.10;99.90;;;10.28;74.40;100046.13;5113367;28;20043;-72
2021/12/05 12:38:06;;;;;;;5.55;5.13;;;10.10;99.90;;;10.29;74.27;100049.66;5113389;28;20051;-75
2021/12/05 12:40:44;;;;;;;5.63;5.15;;;10.10;99.90;;;10.25;74.45;100047.97;5095307;28;20164;-73
2021/12/05 12:43:45;;;;;;;7.93;5.15;;;10.00;99.90;;;10.32;74.59;100052.22;5113511;28;20043;-72
2021/12/05 12:46:25;;;;;;;5.75;5.25;;;10.10;99.90;;;10.30;74.52;100051.41;5113837;28;20048;-73
2021/12/05 12:48:57;;;;;;;6.15;5.55;;;10.10;99.90;;;10.27;74.79;100057.63;5095156;28;20070;-71
2021/12/05 12:51:34;;;;;;;6.40;5.78;;;10.10;99.90;;;10.19;75.18;100059.50;5113167;28;20036;-72
2021/12/05 12:54:09;;;;;;;7.22;6.00;;;10.00;99.90;;;9.86;75.64;100060.84;5113028;28;20039;-72
2021/12/05 12:56:39;;;;;;;6.65;6.05;;;9.70;99.90;;;9.09;78.40;100059.25;5113243;28;20538;-71
2021/12/05 12:59:13;;;;;;;7.60;6.82;;;9.00;99.90;;;8.78;80.14;100070.13;5113434;28;20044;-71
2021/12/05 13:02:15;;;;;;;7.28;6.65;;;8.70;99.90;;;8.96;81.30;100072.59;5113043;28;20040;-74
2021/12/05 13:05:03;;;;;;;7.25;6.53;;;8.70;99.90;;;9.01;81.36;100082.19;5112994;28;20058;-70
2021/12/05 13:10:29;;;;;;;8.90;8.10;;;8.50;99.90;;;8.45;83.14;100084.50;5112982;28;20146;-73
2021/12/05 13:13:03;;;;;;;10.18;8.73;;;8.30;99.90;;;8.02;84.64;100083.94;5111892;28;20081;-73
2021/12/05 13:15:41;;;;;;;10.23;9.23;;;7.90;99.90;;;8.19;86.25;100092.56;5112178;28;20043;-73
2021/12/05 13:18:29;;;;;;;9.02;8.13;;;8.00;99.90;;;8.28;85.31;100098.69;5111824;28;20442;-73
2021/12/05 13:21:04;;;;;;;10.68;8.73;;;8.10;99.90;;;8.05;85.21;100073.34;5093987;28;20039;-73
2021/12/05 13:23:39;;;;;;;10.77;9.60;;;8.00;99.90;;;8.14;85.12;100098.75;5112060;28;20043;-73
2021/12/05 13:26:27;;;;;;;10.68;9.20;;;8.00;99.90;;;8.20;86.13;100104.88;5112105;28;20047;-73
2021/12/05 13:28:59;;;;;;;10.30;9.38;;;8.10;99.90;;;7.86;86.80;100099.81;5112082;28;20093;-73
2021/12/05 13:31:40;;;;;;;11.43;10.32;;;7.80;99.90;;;7.83;88.09;100098.09;5093897;28;20043;-73
2021/12/05 13:34:45;;;;;;;11.80;10.60;;;7.70;99.90;;;7.88;87.76;100106.81;5112039;28;20067;-73
2021/12/05 13:37:34;;;;;;;12.50;9.50;;;7.70;99.90;;;8.00;87.37;100112.03;5112571;28;20493;-73
2021/12/05 13:40:18;;;;;;;11.20;10.10;;;7.80;99.90;;;7.74;87.33;100113.91;5111969;28;20573;-73
2021/12/05 13:42:51;;;;;;;11.05;9.10;;;7.70;99.90;;;7.50;88.24;100119.31;5111807;28;20035;-73
2021/12/05 13:45:41;;;;;;;11.20;10.10;;;7.40;99.90;;;7.79;88.04;100114.78;5111914;28;20090;-72
2021/12/05 13:48:25;;;;;;;10.45;9.27;;;7.60;99.90;;;7.77;87.08;100111.28;5112130;28;20048;-80
2021/12/05 13:51:02;;;;;;;11.35;10.25;;;7.70;99.90;;;7.66;87.01;100101.69;5112147;28;20127;-76
2021/12/05 13:53:38;;;;;;;11.68;10.13;;;7.70;99.90;;;7.81;86.55;100120.03;5111721;28;20542;-77
2021/12/05 13:56:15;;;;;;;11.07;9.73;;;7.70;99.90;;;7.92;86.68;100127.00;5112032;28;20505;-75
2021/12/05 13:58:47;;;;;;;11.65;10.50;;;7.80;99.90;;;7.98;86.80;100128.72;5111583;28;20048;-75
2021/12/05 14:01:25;;;;;;;11.98;10.80;;;7.90;99.90;;;8.16;86.30;100134.75;5111623;28;20043;-73
2021/12/05 14:04:11;;;;;;;14.88;11.52;;;8.00;99.90;;;8.20;86.34;100146.13;5111467;28;20059;-73
2021/12/05 14:06:53;;;;;;;12.85;11.65;;;8.10;99.90;;;8.24;85.80;100142.59;5111860;28;20101;-73
2021/12/05 14:09:31;;;;;;;12.32;11.15;;;8.20;99.90;;;8.20;84.91;100160.19;5113540;28;20062;-72
2021/12/05 14:12:07;;;;;;;13.75;11.43;;;8.10;99.90;;;8.11;84.71;100162.84;5115775;28;20044;-72
2021/12/05 14:14:40;;;;;;;13.68;10.93;;;8.00;99.90;;;8.25;85.24;100170.72;5115599;28;20059;-73
2021/12/05 14:17:12;;;;;;;13.27;11.45;;;8.10;99.90;;;8.26;84.98;100168.97;5115337;28;20039;-73
2021/12/05 14:19:44;;;;;;;13.40;11.48;;;8.10;99.90;;;8.28;84.69;100172.47;5115270;28;20067;-73
2021/12/05 14:22:18;;;;;;;19.95;12.05;;;8.10;99.90;;;7.88;83.81;100156.84;5115499;28;20040;-73
2021/12/05 14:24:50;;;;;;;18.50;11.57;;;8.00;99.90;;;8.02;84.35;100181.34;5115226;28;20048;-73
2021/12/05 14:27:23;;;;;;;20.15;13.02;;;7.90;99.90;;;7.91;85.20;100192.81;5115359;28;20039;-72
2021/12/05 14:29:54;;;;;;;19.58;12.90;;;7.80;99.90;;;7.76;85.35;100199.00;5115258;28;20071;-80
2021/12/05 14:32:26;;;;;;;19.35;12.85;;;7.60;99.90;;;7.83;85.02;100208.66;5114975;28;20046;-79
2021/12/05 14:34:58;;;;;;;22.77;15.05;;;7.60;99.90;;;7.55;87.19;100211.41;5115359;28;20051;-75
2021/12/05 14:37:33;;;;;;;36.40;18.15;;;7.50;99.90;;;7.49;87.90;100209.63;5114984;28;20102;-73
2021/12/05 14:40:05;;;;;;;34.95;19.55;;;7.40;99.90;;;7.55;88.80;100211.41;5114824;28;20465;-72
2021/12/05 14:42:36;;;;;;;35.97;19.73;;;7.40;99.90;;;7.44;88.10;100221.94;5115213;28;20051;-72
2021/12/05 14:45:09;;;;;;;39.75;21.67;;;7.40;99.90;;;7.23;88.75;100221.97;5114961;28;20055;-77
2021/12/05 14:47:40;;;;;;;40.83;22.05;;;7.20;99.90;;;7.17;89.06;100214.09;5115094;28;20048;-74
2021/12/05 14:50:12;;;;;;;47.20;24.02;;;7.20;99.90;;;7.18;89.50;100247.41;5115018;28;20475;-74
2021/12/05 14:52:45;;;;;;;53.05;25.95;;;7.10;99.90;;;7.18;89.57;100253.53;5096510;28;20512;-75
2021/12/05 14:55:17;;;;;;;51.10;26.23;;;7.00;99.90;;;7.11;89.54;100253.53;5114383;28;20061;-72
2021/12/05 14:57:50;;;;;;;49.58;26.10;;;7.00;99.90;;;7.06;90.06;100253.56;5114294;28;20039;-73
2021/12/05 15:00:24;;;;;;;51.90;27.10;;;6.90;99.90;;;7.12;90.54;100265.81;5114055;28;20047;-72
2021/12/05 15:03:01;;;;;;;55.90;27.23;;;7.00;99.90;;;7.07;89.92;100264.94;5113990;28;20134;-72
2021/12/05 15:05:31;;;;;;;46.85;25.38;;;7.00;99.90;;;7.05;90.12;100261.41;5096181;28;20349;-73
2021/12/05 15:08:08;;;;;;;42.55;23.92;;;6.90;99.90;;;7.00;89.65;100274.59;5114258;28;20562;-73
2021/12/05 15:10:38;;;;;;;41.10;22.33;;;6.90;99.90;;;7.07;89.21;100281.59;5114126;28;20046;-71
2021/12/05 15:13:08;;;;;;;43.83;22.98;;;6.90;99.90;;;6.94;89.24;100295.63;5114046;28;20127;-72
2021/12/05 15:15:38;;;;;;;43.22;22.58;;;6.90;99.90;;;7.00;89.85;100302.63;5114022;28;20122;-73
2021/12/05 15:18:14;;;;;;;39.15;23.35;;;6.90;99.90;;;7.00;89.89;100306.13;5113744;28;20142;-72